sensor_id;sensor_type;location;lat;lon;timestamp;pressure;altitude;pressure_sealevel;temperature;humidity
68807;BME280;55800;54.272;18.558;2023-03-05T00:00:19;100292.97;;;-1.55;53.78
68807;BME280;55800;54.272;18.558;2023-03-05T00:03:09;100290.34;;;-1.52;53.96
68807;BME280;55800;54.272;18.558;2023-03-05T00:05:40;100289.47;;;-1.51;53.88
68807;BME280;55800;54.272;18.558;2023-03-05T00:08:09;100285.09;;;-1.52;53.80
68807;BME280;55800;54.272;18.558;2023-03-05T00:10:39;100290.34;;;-1.49;53.79
68807;BME280;55800;54.272;18.558;2023-03-05T00:13:08;100284.25;;;-1.51;53.84
68807;BME280;55800;54.272;18.558;2023-03-05T00:15:40;100288.59;;;-1.53;54.06
68807;BME280;55800;54.272;18.558;2023-03-05T00:18:09;100280.72;;;-1.52;54.03
68807;BME280;55800;54.272;18.558;2023-03-05T00:20:41;100266.75;;;-1.55;54.14
68807;BME280;55800;54.272;18.558;2023-03-05T00:23:10;100272.00;;;-1.54;54.18
68807;BME280;55800;54.272;18.558;2023-03-05T00:25:40;100269.38;;;-1.55;54.17
68807;BME280;55800;54.272;18.558;2023-03-05T00:28:09;100266.75;;;-1.55;54.22
68807;BME280;55800;54.272;18.558;2023-03-05T00:30:39;100266.75;;;-1.52;54.14
68807;BME280;55800;54.272;18.558;2023-03-05T00:33:09;100258.91;;;-1.55;54.29
68807;BME280;55800;54.272;18.558;2023-03-05T00:35:44;100254.53;;;-1.60;54.29
68807;BME280;55800;54.272;18.558;2023-03-05T00:38:14;100265.00;;;-1.58;54.37
68807;BME280;55800;54.272;18.558;2023-03-05T00:40:44;100268.50;;;-1.54;54.44
68807;BME280;55800;54.272;18.558;2023-03-05T00:43:13;100267.66;;;-1.55;54.36
68807;BME280;55800;54.272;18.558;2023-03-05T00:45:42;100261.53;;;-1.57;54.29
68807;BME280;55800;54.272;18.558;2023-03-05T00:48:12;100269.38;;;-1.55;54.35
68807;BME280;55800;54.272;18.558;2023-03-05T00:50:43;100264.13;;;-1.52;54.41
68807;BME280;55800;54.272;18.558;2023-03-05T00:53:12;100258.91;;;-1.55;54.85
68807;BME280;55800;54.272;18.558;2023-03-05T00:55:41;100258.03;;;-1.50;54.85
68807;BME280;55800;54.272;18.558;2023-03-05T00:58:11;100264.13;;;-1.49;55.31
68807;BME280;55800;54.272;18.558;2023-03-05T01:00:40;100249.31;;;-1.44;55.22
68807;BME280;55800;54.272;18.558;2023-03-05T01:03:10;100247.56;;;-1.42;55.65
68807;BME280;55800;54.272;18.558;2023-03-05T01:05:39;100245.81;;;-1.40;55.83
68807;BME280;55800;54.272;18.558;2023-03-05T01:08:10;100241.41;;;-1.35;55.69
68807;BME280;55800;54.272;18.558;2023-03-05T01:10:39;100260.66;;;-1.30;56.13
68807;BME280;55800;54.272;18.558;2023-03-05T01:13:09;100262.41;;;-1.26;56.16
68807;BME280;55800;54.272;18.558;2023-03-05T01:15:38;100245.78;;;-1.24;56.35
68807;BME280;55800;54.272;18.558;2023-03-05T01:18:07;100248.41;;;-1.16;56.33
68807;BME280;55800;54.272;18.558;2023-03-05T01:20:37;100239.66;;;-1.12;56.40
68807;BME280;55800;54.272;18.558;2023-03-05T01:23:06;100229.19;;;-1.06;56.47
68807;BME280;55800;54.272;18.558;2023-03-05T01:25:37;100227.41;;;-1.07;56.49
68807;BME280;55800;54.272;18.558;2023-03-05T01:28:07;100238.75;;;-1.04;56.60
68807;BME280;55800;54.272;18.558;2023-03-05T01:30:36;100225.66;;;-1.02;56.46
68807;BME280;55800;54.272;18.558;2023-03-05T01:33:05;100223.03;;;-0.99;56.22
68807;BME280;55800;54.272;18.558;2023-03-05T01:35:35;100217.81;;;-1.02;56.30
68807;BME280;55800;54.272;18.558;2023-03-05T01:38:04;100209.03;;;-1.06;56.33
68807;BME280;55800;54.272;18.558;2023-03-05T01:40:35;100200.31;;;-1.09;56.09
68807;BME280;55800;54.272;18.558;2023-03-05T01:43:21;100201.19;;;-1.13;56.33
68807;BME280;55800;54.272;18.558;2023-03-05T01:49:10;100199.47;;;-1.17;56.28
68807;BME280;55800;54.272;18.558;2023-03-05T01:51:51;100193.34;;;-1.15;55.95
68807;BME280;55800;54.272;18.558;2023-03-05T01:54:27;100181.94;;;-1.12;55.93
68807;BME280;55800;54.272;18.558;2023-03-05T01:57:06;100185.47;;;-1.13;55.69
68807;BME280;55800;54.272;18.558;2023-03-05T01:59:39;100186.34;;;-1.20;55.65
68807;BME280;55800;54.272;18.558;2023-03-05T02:02:10;100173.25;;;-1.22;55.57
68807;BME280;55800;54.272;18.558;2023-03-05T02:04:44;100178.50;;;-1.23;55.61
68807;BME280;55800;54.272;18.558;2023-03-05T02:07:15;100175.00;;;-1.34;56.06
68807;BME280;55800;54.272;18.558;2023-03-05T02:09:45;100175.88;;;-1.35;56.50
68807;BME280;55800;54.272;18.558;2023-03-05T02:12:16;100176.75;;;-1.39;56.92
68807;BME280;55800;54.272;18.558;2023-03-05T02:14:48;100179.38;;;-1.45;57.43
68807;BME280;55800;54.272;18.558;2023-03-05T02:17:26;100173.28;;;-1.44;56.69
68807;BME280;55800;54.272;18.558;2023-03-05T02:20:03;100169.75;;;-1.43;56.58
68807;BME280;55800;54.272;18.558;2023-03-05T02:22:35;100171.53;;;-1.48;56.63
68807;BME280;55800;54.272;18.558;2023-03-05T02:25:13;100166.28;;;-1.51;55.91
68807;BME280;55800;54.272;18.558;2023-03-05T02:27:49;100167.16;;;-1.59;56.78
68807;BME280;55800;54.272;18.558;2023-03-05T02:30:20;100167.16;;;-1.59;57.51
68807;BME280;55800;54.272;18.558;2023-03-05T02:32:49;100164.53;;;-1.59;57.63
68807;BME280;55800;54.272;18.558;2023-03-05T02:35:20;100155.81;;;-1.67;58.41
68807;BME280;55800;54.272;18.558;2023-03-05T02:37:51;100153.19;;;-1.67;58.68
68807;BME280;55800;54.272;18.558;2023-03-05T02:40:21;100152.31;;;-1.66;58.57
68807;BME280;55800;54.272;18.558;2023-03-05T02:42:50;100141.81;;;-1.63;59.01
68807;BME280;55800;54.272;18.558;2023-03-05T02:45:19;100133.97;;;-1.66;58.82
68807;BME280;55800;54.272;18.558;2023-03-05T02:47:49;100144.44;;;-1.69;59.07
68807;BME280;55800;54.272;18.558;2023-03-05T02:50:18;100139.22;;;-1.69;59.11
68807;BME280;55800;54.272;18.558;2023-03-05T02:52:48;100126.97;;;-1.67;59.21
68807;BME280;55800;54.272;18.558;2023-03-05T02:55:19;100133.09;;;-1.65;59.43
68807;BME280;55800;54.272;18.558;2023-03-05T02:57:49;100126.97;;;-1.61;58.89
68807;BME280;55800;54.272;18.558;2023-03-05T03:00:18;100126.09;;;-1.63;59.03
68807;BME280;55800;54.272;18.558;2023-03-05T03:02:48;100116.47;;;-1.61;58.88
68807;BME280;55800;54.272;18.558;2023-03-05T03:05:18;100112.13;;;-1.59;59.48
68807;BME280;55800;54.272;18.558;2023-03-05T03:07:47;100120.84;;;-1.57;59.26
68807;BME280;55800;54.272;18.558;2023-03-05T03:10:17;100117.34;;;-1.52;58.94
68807;BME280;55800;54.272;18.558;2023-03-05T03:12:48;100112.09;;;-1.54;58.69
68807;BME280;55800;54.272;18.558;2023-03-05T03:15:17;100110.38;;;-1.60;58.90
68807;BME280;55800;54.272;18.558;2023-03-05T03:17:47;100104.25;;;-1.55;58.60
68807;BME280;55800;54.272;18.558;2023-03-05T03:20:17;100103.38;;;-1.61;58.52
68807;BME280;55800;54.272;18.558;2023-03-05T03:22:46;100104.28;;;-1.62;58.95
68807;BME280;55800;54.272;18.558;2023-03-05T03:25:18;100106.00;;;-1.58;58.86
68807;BME280;55800;54.272;18.558;2023-03-05T03:27:53;100098.16;;;-1.58;59.13
68807;BME280;55800;54.272;18.558;2023-03-05T03:33:44;100091.13;;;-1.52;58.96
68807;BME280;55800;54.272;18.558;2023-03-05T03:36:14;100094.63;;;-1.47;59.40
68807;BME280;55800;54.272;18.558;2023-03-05T03:38:43;100091.13;;;-1.45;59.50
68807;BME280;55800;54.272;18.558;2023-03-05T03:41:12;100085.88;;;-1.43;60.03
68807;BME280;55800;54.272;18.558;2023-03-05T03:43:43;100096.38;;;-1.40;60.38
68807;BME280;55800;54.272;18.558;2023-03-05T03:46:12;100107.72;;;-1.38;60.34
68807;BME280;55800;54.272;18.558;2023-03-05T03:48:42;100116.44;;;-1.35;60.29
68807;BME280;55800;54.272;18.558;2023-03-05T03:51:11;100124.31;;;-1.30;61.44
68807;BME280;55800;54.272;18.558;2023-03-05T03:53:40;100116.41;;;-1.24;62.45
68807;BME280;55800;54.272;18.558;2023-03-05T03:56:09;100103.28;;;-1.18;63.02
68807;BME280;55800;54.272;18.558;2023-03-05T03:58:39;100092.78;;;-1.15;63.05
68807;BME280;55800;54.272;18.558;2023-03-05T04:01:09;100077.94;;;-1.13;63.28
68807;BME280;55800;54.272;18.558;2023-03-05T04:03:39;100077.03;;;-1.09;63.95
68807;BME280;55800;54.272;18.558;2023-03-05T04:06:08;100077.91;;;-1.07;63.43
68807;BME280;55800;54.272;18.558;2023-03-05T04:08:38;100073.56;;;-1.08;63.56
68807;BME280;55800;54.272;18.558;2023-03-05T04:11:07;100068.31;;;-1.08;63.20
68807;BME280;55800;54.272;18.558;2023-03-05T04:13:37;100060.41;;;-1.07;63.33
68807;BME280;55800;54.272;18.558;2023-03-05T04:16:06;100062.19;;;-1.09;62.27
68807;BME280;55800;54.272;18.558;2023-03-05T04:18:37;100056.09;;;-1.15;61.94
68807;BME280;55800;54.272;18.558;2023-03-05T04:21:06;100048.25;;;-1.24;62.53
68807;BME280;55800;54.272;18.558;2023-03-05T04:23:36;100040.41;;;-1.27;61.54
68807;BME280;55800;54.272;18.558;2023-03-05T04:26:06;100041.25;;;-1.31;60.97
68807;BME280;55800;54.272;18.558;2023-03-05T04:28:36;100051.78;;;-1.37;61.80
68807;BME280;55800;54.272;18.558;2023-03-05T04:31:05;100058.78;;;-1.39;62.09
68807;BME280;55800;54.272;18.558;2023-03-05T04:33:34;100056.16;;;-1.39;62.26
68807;BME280;55800;54.272;18.558;2023-03-05T04:36:06;100063.16;;;-1.46;61.76
68807;BME280;55800;54.272;18.558;2023-03-05T04:38:35;100060.53;;;-1.50;61.54
68807;BME280;55800;54.272;18.558;2023-03-05T04:41:05;100055.31;;;-1.53;61.17
68807;BME280;55800;54.272;18.558;2023-03-05T04:43:34;100072.81;;;-1.59;61.40
68807;BME280;55800;54.272;18.558;2023-03-05T04:46:03;100075.44;;;-1.55;61.01
68807;BME280;55800;54.272;18.558;2023-03-05T04:48:33;100064.09;;;-1.64;61.40
68807;BME280;55800;54.272;18.558;2023-03-05T04:51:04;100059.72;;;-1.66;60.99
68807;BME280;55800;54.272;18.558;2023-03-05T04:53:33;100048.38;;;-1.73;62.07
68807;BME280;55800;54.272;18.558;2023-03-05T04:56:03;100039.66;;;-1.75;60.61
68807;BME280;55800;54.272;18.558;2023-03-05T04:58:32;100044.00;;;-1.80;61.73
68807;BME280;55800;54.272;18.558;2023-03-05T05:01:02;100043.16;;;-1.83;60.94
68807;BME280;55800;54.272;18.558;2023-03-05T05:03:32;100041.41;;;-1.87;61.27
68807;BME280;55800;54.272;18.558;2023-03-05T05:06:01;100042.28;;;-1.90;61.12
68807;BME280;55800;54.272;18.558;2023-03-05T05:08:32;100044.03;;;-1.95;60.41
68807;BME280;55800;54.272;18.558;2023-03-05T05:11:03;100035.31;;;-1.98;60.45
68807;BME280;55800;54.272;18.558;2023-03-05T05:13:33;100039.66;;;-2.03;60.58
68807;BME280;55800;54.272;18.558;2023-03-05T05:16:06;100042.31;;;-2.02;60.11
68807;BME280;55800;54.272;18.558;2023-03-05T05:18:35;100046.66;;;-2.10;60.89
68807;BME280;55800;54.272;18.558;2023-03-05T05:21:07;100033.56;;;-2.10;60.12
68807;BME280;55800;54.272;18.558;2023-03-05T05:23:38;100041.44;;;-2.16;60.54
68807;BME280;55800;54.272;18.558;2023-03-05T05:26:08;100044.94;;;-2.15;60.43
68807;BME280;55800;54.272;18.558;2023-03-05T05:28:42;100033.56;;;-2.17;60.13
68807;BME280;55800;54.272;18.558;2023-03-05T05:31:13;100031.84;;;-2.21;60.09
68807;BME280;55800;54.272;18.558;2023-03-05T05:33:44;100038.81;;;-2.23;59.92
68807;BME280;55800;54.272;18.558;2023-03-05T05:36:17;100027.50;;;-2.27;59.26
68807;BME280;55800;54.272;18.558;2023-03-05T05:38:50;100030.94;;;-2.31;59.88
68807;BME280;55800;54.272;18.558;2023-03-05T05:41:20;100030.09;;;-2.27;59.29
68807;BME280;55800;54.272;18.558;2023-03-05T05:43:49;100025.72;;;-2.31;59.35
68807;BME280;55800;54.272;18.558;2023-03-05T05:46:20;100022.22;;;-2.39;60.42
68807;BME280;55800;54.272;18.558;2023-03-05T05:48:50;100031.84;;;-2.38;59.61
68807;BME280;55800;54.272;18.558;2023-03-05T05:51:21;100023.13;;;-2.40;59.25
68807;BME280;55800;54.272;18.558;2023-03-05T05:53:52;100029.22;;;-2.43;59.30
68807;BME280;55800;54.272;18.558;2023-03-05T05:56:21;100031.81;;;-2.41;60.09
68807;BME280;55800;54.272;18.558;2023-03-05T05:58:51;100023.97;;;-2.43;59.13
68807;BME280;55800;54.272;18.558;2023-03-05T06:01:22;100023.09;;;-2.45;59.84
68807;BME280;55800;54.272;18.558;2023-03-05T06:03:52;100025.72;;;-2.43;60.25
68807;BME280;55800;54.272;18.558;2023-03-05T06:06:23;100021.38;;;-2.44;60.34
68807;BME280;55800;54.272;18.558;2023-03-05T06:08:55;100023.09;;;-2.37;60.17
68807;BME280;55800;54.272;18.558;2023-03-05T06:11:24;100023.09;;;-2.37;60.51
68807;BME280;55800;54.272;18.558;2023-03-05T06:13:53;100017.00;;;-2.36;60.52
68807;BME280;55800;54.272;18.558;2023-03-05T06:16:23;100021.34;;;-2.35;61.18
68807;BME280;55800;54.272;18.558;2023-03-05T06:18:53;100011.78;;;-2.30;61.37
68807;BME280;55800;54.272;18.558;2023-03-05T06:21:23;100017.88;;;-2.28;60.78
68807;BME280;55800;54.272;18.558;2023-03-05T06:23:54;100017.00;;;-2.28;60.50
68807;BME280;55800;54.272;18.558;2023-03-05T06:26:25;100012.63;;;-2.23;60.85
68807;BME280;55800;54.272;18.558;2023-03-05T06:28:55;100011.75;;;-2.15;61.24
68807;BME280;55800;54.272;18.558;2023-03-05T06:31:27;100007.41;;;-2.08;61.21
68807;BME280;55800;54.272;18.558;2023-03-05T06:33:58;100016.13;;;-2.02;60.97
68807;BME280;55800;54.272;18.558;2023-03-05T06:36:29;100007.38;;;-1.92;60.89
68807;BME280;55800;54.272;18.558;2023-03-05T06:39:00;99996.00;;;-1.88;60.85
68807;BME280;55800;54.272;18.558;2023-03-05T06:41:30;99995.97;;;-1.80;60.78
68807;BME280;55800;54.272;18.558;2023-03-05T06:44:01;100004.69;;;-1.71;60.52
68807;BME280;55800;54.272;18.558;2023-03-05T06:46:32;100000.34;;;-1.66;60.35
68807;BME280;55800;54.272;18.558;2023-03-05T06:49:04;99995.06;;;-1.63;60.35
68807;BME280;55800;54.272;18.558;2023-03-05T06:51:36;99998.53;;;-1.53;60.12
68807;BME280;55800;54.272;18.558;2023-03-05T06:54:09;100002.84;;;-1.41;59.70
68807;BME280;55800;54.272;18.558;2023-03-05T06:56:40;99995.84;;;-1.35;59.53
68807;BME280;55800;54.272;18.558;2023-03-05T06:59:12;99999.34;;;-1.34;59.66
68807;BME280;55800;54.272;18.558;2023-03-05T07:01:41;99999.25;;;-1.21;59.32
68807;BME280;55800;54.272;18.558;2023-03-05T07:04:12;99990.47;;;-1.12;58.95
68807;BME280;55800;54.272;18.558;2023-03-05T07:06:42;99996.59;;;-1.07;59.08
68807;BME280;55800;54.272;18.558;2023-03-05T07:09:14;99993.03;;;-0.97;58.92
68807;BME280;55800;54.272;18.558;2023-03-05T07:11:43;99988.56;;;-0.85;58.35
68807;BME280;55800;54.272;18.558;2023-03-05T07:14:12;99989.44;;;-0.80;58.34
68807;BME280;55800;54.272;18.558;2023-03-05T07:16:42;99992.00;;;-0.70;58.14
68807;BME280;55800;54.272;18.558;2023-03-05T07:19:11;99987.59;;;-0.64;58.01
68807;BME280;55800;54.272;18.558;2023-03-05T07:21:40;99988.34;;;-0.53;57.69
68807;BME280;55800;54.272;18.558;2023-03-05T07:24:13;99976.97;;;-0.49;57.38
68807;BME280;55800;54.272;18.558;2023-03-05T07:26:42;99983.94;;;-0.45;57.54
68807;BME280;55800;54.272;18.558;2023-03-05T07:29:15;99980.34;;;-0.35;57.29
68807;BME280;55800;54.272;18.558;2023-03-05T07:31:44;99975.94;;;-0.28;57.09
68807;BME280;55800;54.272;18.558;2023-03-05T07:34:14;99981.09;;;-0.21;57.45
68807;BME280;55800;54.272;18.558;2023-03-05T07:36:44;99984.53;;;-0.11;56.93
68807;BME280;55800;54.272;18.558;2023-03-05T07:39:15;99982.69;;;-0.03;56.97
68807;BME280;55800;54.272;18.558;2023-03-05T07:41:46;99975.63;;;0.00;57.01
68807;BME280;55800;54.272;18.558;2023-03-05T07:44:18;99979.03;;;0.12;56.96
68807;BME280;55800;54.272;18.558;2023-03-05T07:46:47;99971.97;;;0.18;56.84
68807;BME280;55800;54.272;18.558;2023-03-05T07:49:18;99977.13;;;0.27;56.68
68807;BME280;55800;54.272;18.558;2023-03-05T07:51:47;99971.78;;;0.35;56.34
68807;BME280;55800;54.272;18.558;2023-03-05T07:54:18;99972.56;;;0.43;56.04
68807;BME280;55800;54.272;18.558;2023-03-05T07:56:47;99977.75;;;0.50;55.53
68807;BME280;55800;54.272;18.558;2023-03-05T07:59:17;99976.81;;;0.54;55.25
68807;BME280;55800;54.272;18.558;2023-03-05T08:01:46;99975.88;;;0.61;55.32
68807;BME280;55800;54.272;18.558;2023-03-05T08:04:15;99976.66;;;0.66;54.89
68807;BME280;55800;54.272;18.558;2023-03-05T08:06:45;99973.97;;;0.71;54.79
68807;BME280;55800;54.272;18.558;2023-03-05T08:09:14;99973.00;;;0.79;54.44
68807;BME280;55800;54.272;18.558;2023-03-05T08:11:45;99974.69;;;0.84;53.80
68807;BME280;55800;54.272;18.558;2023-03-05T08:14:15;99979.88;;;0.90;54.15
68807;BME280;55800;54.272;18.558;2023-03-05T08:16:44;99967.53;;;0.95;53.41
68807;BME280;55800;54.272;18.558;2023-03-05T08:19:18;99969.19;;;1.00;53.87
68807;BME280;55800;54.272;18.558;2023-03-05T08:21:48;99975.19;;;1.11;53.90
68807;BME280;55800;54.272;18.558;2023-03-05T08:24:17;99968.09;;;1.16;54.05
68807;BME280;55800;54.272;18.558;2023-03-05T08:26:48;99961.88;;;1.22;53.69
68807;BME280;55800;54.272;18.558;2023-03-05T08:29:17;99964.41;;;1.29;52.84
68807;BME280;55800;54.272;18.558;2023-03-05T08:31:47;99958.16;;;1.35;52.60
68807;BME280;55800;54.272;18.558;2023-03-05T08:34:17;99955.47;;;1.39;52.34
68807;BME280;55800;54.272;18.558;2023-03-05T08:36:46;99958.88;;;1.44;53.29
68807;BME280;55800;54.272;18.558;2023-03-05T08:39:17;99950.00;;;1.51;53.19
68807;BME280;55800;54.272;18.558;2023-03-05T08:41:47;99950.72;;;1.59;52.91
68807;BME280;55800;54.272;18.558;2023-03-05T08:44:17;99954.97;;;1.68;52.62
68807;BME280;55800;54.272;18.558;2023-03-05T08:46:46;99947.00;;;1.73;52.74
68807;BME280;55800;54.272;18.558;2023-03-05T08:49:16;99942.53;;;1.76;51.37
68807;BME280;55800;54.272;18.558;2023-03-05T08:51:45;99956.56;;;1.80;52.16
68807;BME280;55800;54.272;18.558;2023-03-05T08:54:14;99946.78;;;1.86;51.56
68807;BME280;55800;54.272;18.558;2023-03-05T08:56:43;99947.59;;;1.90;51.99
68807;BME280;55800;54.272;18.558;2023-03-05T08:59:14;99952.75;;;1.96;51.69
68807;BME280;55800;54.272;18.558;2023-03-05T09:01:43;99944.72;;;2.02;51.76
68807;BME280;55800;54.272;18.558;2023-03-05T09:04:13;99941.97;;;2.08;51.26
68807;BME280;55800;54.272;18.558;2023-03-05T09:06:43;99948.91;;;2.13;50.90
68807;BME280;55800;54.272;18.558;2023-03-05T09:09:12;99940.09;;;2.16;51.00
68807;BME280;55800;54.272;18.558;2023-03-05T09:11:41;99948.75;;;2.22;50.95
68807;BME280;55800;54.272;18.558;2023-03-05T09:14:12;99935.41;;;2.30;50.35
68807;BME280;55800;54.272;18.558;2023-03-05T09:16:42;99949.38;;;2.35;50.02
68807;BME280;55800;54.272;18.558;2023-03-05T09:19:11;99946.53;;;2.44;50.72
68807;BME280;55800;54.272;18.558;2023-03-05T09:21:42;99941.16;;;2.50;49.32
68807;BME280;55800;54.272;18.558;2023-03-05T09:24:11;99946.25;;;2.59;49.56
68807;BME280;55800;54.272;18.558;2023-03-05T09:26:41;99938.13;;;2.68;48.25
68807;BME280;55800;54.272;18.558;2023-03-05T09:29:16;99946.81;;;2.75;47.61
68807;BME280;55800;54.272;18.558;2023-03-05T09:31:49;99940.66;;;2.74;47.74
68807;BME280;55800;54.272;18.558;2023-03-05T09:34:19;99946.81;;;2.75;47.60
68807;BME280;55800;54.272;18.558;2023-03-05T09:36:49;99945.88;;;2.77;47.33
68807;BME280;55800;54.272;18.558;2023-03-05T09:39:18;99944.91;;;2.81;47.42
68807;BME280;55800;54.272;18.558;2023-03-05T09:42:05;99945.66;;;2.86;48.23
68807;BME280;55800;54.272;18.558;2023-03-05T09:44:48;99938.47;;;2.94;47.53
68807;BME280;55800;54.272;18.558;2023-03-05T09:47:29;99918.13;;;2.98;46.85
68807;BME280;55800;54.272;18.558;2023-03-05T09:50:14;99933.97;;;2.98;46.25
68807;BME280;55800;54.272;18.558;2023-03-05T09:52:54;99934.00;;;2.96;45.91
68807;BME280;55800;54.272;18.558;2023-03-05T09:55:30;99932.13;;;3.01;46.31
68807;BME280;55800;54.272;18.558;2023-03-05T09:58:04;99928.56;;;3.04;46.42
68807;BME280;55800;54.272;18.558;2023-03-05T10:00:40;99935.53;;;3.06;46.80
68807;BME280;55800;54.272;18.558;2023-03-05T10:03:18;99929.38;;;3.07;46.06
68807;BME280;55800;54.272;18.558;2023-03-05T10:05:59;99927.47;;;3.12;46.46
68807;BME280;55800;54.272;18.558;2023-03-05T10:08:39;99928.44;;;3.08;46.25
68807;BME280;55800;54.272;18.558;2023-03-05T10:14:10;99926.94;;;2.98;46.53
68807;BME280;55800;54.272;18.558;2023-03-05T10:17:10;99928.78;;;2.93;46.02
68807;BME280;55800;54.272;18.558;2023-03-05T10:23:03;99915.88;;;2.81;45.93
68807;BME280;55800;54.272;18.558;2023-03-05T10:25:58;99923.06;;;2.75;45.72
68807;BME280;55800;54.272;18.558;2023-03-05T10:28:36;99917.03;;;2.68;45.78
68807;BME280;55800;54.272;18.558;2023-03-05T10:31:28;99916.91;;;2.74;45.83
68807;BME280;55800;54.272;18.558;2023-03-05T10:34:25;99922.03;;;2.80;46.06
68807;BME280;55800;54.272;18.558;2023-03-05T10:37:11;99909.63;;;2.85;46.00
68807;BME280;55800;54.272;18.558;2023-03-05T10:40:10;99911.97;;;2.97;46.07
68807;BME280;55800;54.272;18.558;2023-03-05T10:42:49;99909.91;;;3.10;45.88
68807;BME280;55800;54.272;18.558;2023-03-05T10:45:25;99904.53;;;3.14;46.90
68807;BME280;55800;54.272;18.558;2023-03-05T10:48:01;99922.88;;;3.22;47.26
68807;BME280;55800;54.272;18.558;2023-03-05T10:50:36;99919.19;;;3.28;47.34
68807;BME280;55800;54.272;18.558;2023-03-05T10:53:14;99921.84;;;3.28;47.48
68807;BME280;55800;54.272;18.558;2023-03-05T10:55:45;99906.81;;;3.30;47.62
68807;BME280;55800;54.272;18.558;2023-03-05T10:58:16;99914.69;;;3.33;46.62
68807;BME280;55800;54.272;18.558;2023-03-05T11:01:03;99916.34;;;3.37;45.91
68807;BME280;55800;54.272;18.558;2023-03-05T11:03:48;99921.53;;;3.40;45.69
68807;BME280;55800;54.272;18.558;2023-03-05T11:06:32;99918.06;;;3.39;45.27
68807;BME280;55800;54.272;18.558;2023-03-05T11:09:24;99911.22;;;3.29;45.23
68807;BME280;55800;54.272;18.558;2023-03-05T11:12:13;99912.16;;;3.27;46.06
68807;BME280;55800;54.272;18.558;2023-03-05T11:14:44;99912.16;;;3.28;45.62
68807;BME280;55800;54.272;18.558;2023-03-05T11:17:27;99909.66;;;3.22;45.45
68807;BME280;55800;54.272;18.558;2023-03-05T11:20:19;99912.41;;;3.17;45.08
68807;BME280;55800;54.272;18.558;2023-03-05T11:23:17;99907.94;;;3.20;45.46
68807;BME280;55800;54.272;18.558;2023-03-05T11:25:55;99903.50;;;3.22;45.10
68807;BME280;55800;54.272;18.558;2023-03-05T11:28:30;99890.16;;;3.28;45.24
68807;BME280;55800;54.272;18.558;2023-03-05T11:31:06;99890.00;;;3.34;45.23
68807;BME280;55800;54.272;18.558;2023-03-05T11:33:37;99882.69;;;3.45;45.37
68807;BME280;55800;54.272;18.558;2023-03-05T11:36:21;99896.56;;;3.53;45.61
68807;BME280;55800;54.272;18.558;2023-03-05T11:38:55;99878.88;;;3.55;44.44
68807;BME280;55800;54.272;18.558;2023-03-05T11:41:30;99885.66;;;3.65;45.70
68807;BME280;55800;54.272;18.558;2023-03-05T11:44:02;99881.16;;;3.70;46.33
68807;BME280;55800;54.272;18.558;2023-03-05T11:46:37;99872.88;;;3.83;45.61
68807;BME280;55800;54.272;18.558;2023-03-05T11:49:14;99868.25;;;3.91;46.41
68807;BME280;55800;54.272;18.558;2023-03-05T11:51:47;99874.19;;;4.00;47.21
68807;BME280;55800;54.272;18.558;2023-03-05T11:54:25;99879.28;;;4.07;45.49
68807;BME280;55800;54.272;18.558;2023-03-05T11:56:57;99875.59;;;4.13;44.22
68807;BME280;55800;54.272;18.558;2023-03-05T11:59:33;99869.38;;;4.14;44.05
68807;BME280;55800;54.272;18.558;2023-03-05T12:02:05;99863.19;;;4.15;44.46
68807;BME280;55800;54.272;18.558;2023-03-05T12:04:47;99865.06;;;4.11;43.90
68807;BME280;55800;54.272;18.558;2023-03-05T12:07:20;99861.59;;;4.09;44.03
68807;BME280;55800;54.272;18.558;2023-03-05T12:09:52;99864.06;;;4.14;43.48
68807;BME280;55800;54.272;18.558;2023-03-05T12:12:32;99872.25;;;4.06;43.32
68807;BME280;55800;54.272;18.558;2023-03-05T12:15:28;99865.28;;;4.02;43.69
68807;BME280;55800;54.272;18.558;2023-03-05T12:18:11;99857.25;;;4.05;44.28
68807;BME280;55800;54.272;18.558;2023-03-05T12:20:47;99861.53;;;4.11;43.97
68807;BME280;55800;54.272;18.558;2023-03-05T12:23:20;99865.88;;;4.13;44.00
68807;BME280;55800;54.272;18.558;2023-03-05T12:25:53;99850.84;;;4.14;44.73
68807;BME280;55800;54.272;18.558;2023-03-05T12:28:52;99849.72;;;4.22;45.25
68807;BME280;55800;54.272;18.558;2023-03-05T12:31:33;99860.28;;;4.24;45.33
68807;BME280;55800;54.272;18.558;2023-03-05T12:34:41;99860.16;;;4.28;45.70
68807;BME280;55800;54.272;18.558;2023-03-05T12:40:23;99853.75;;;4.35;45.55
68807;BME280;55800;54.272;18.558;2023-03-05T12:42:56;99862.50;;;4.39;44.50
68807;BME280;55800;54.272;18.558;2023-03-05T12:45:44;99856.34;;;4.38;43.88
68807;BME280;55800;54.272;18.558;2023-03-05T12:48:42;99849.34;;;4.36;44.24
68807;BME280;55800;54.272;18.558;2023-03-05T12:51:34;99848.56;;;4.32;43.89
68807;BME280;55800;54.272;18.558;2023-03-05T12:54:27;99844.94;;;4.36;44.47
68807;BME280;55800;54.272;18.558;2023-03-05T12:56:59;99848.41;;;4.38;44.40
68807;BME280;55800;54.272;18.558;2023-03-05T12:59:39;99850.09;;;4.39;45.10
68807;BME280;55800;54.272;18.558;2023-03-05T13:02:22;99848.28;;;4.41;45.65
68807;BME280;55800;54.272;18.558;2023-03-05T13:04:58;99841.97;;;4.45;45.54
68807;BME280;55800;54.272;18.558;2023-03-05T13:07:29;99843.69;;;4.48;45.56
68807;BME280;55800;54.272;18.558;2023-03-05T13:10:02;99845.44;;;4.49;46.27
68807;BME280;55800;54.272;18.558;2023-03-05T13:12:49;99846.94;;;4.57;45.32
68807;BME280;55800;54.272;18.558;2023-03-05T13:15:23;99840.72;;;4.58;45.25
68807;BME280;55800;54.272;18.558;2023-03-05T13:17:56;99836.41;;;4.56;45.08
68807;BME280;55800;54.272;18.558;2023-03-05T13:20:33;99850.47;;;4.58;45.74
68807;BME280;55800;54.272;18.558;2023-03-05T13:25:59;99840.03;;;4.52;46.30
68807;BME280;55800;54.272;18.558;2023-03-05T13:28:30;99839.00;;;4.57;46.16
68807;BME280;55800;54.272;18.558;2023-03-05T13:31:03;99826.59;;;4.59;46.51
68807;BME280;55800;54.272;18.558;2023-03-05T13:33:39;99828.13;;;4.66;46.77
68807;BME280;55800;54.272;18.558;2023-03-05T13:36:15;99832.13;;;4.80;45.47
68807;BME280;55800;54.272;18.558;2023-03-05T13:38:45;99836.22;;;4.90;44.89